Time;durP1;ratioP1;P1;durP2;ratioP2;P2;SDS_P1;SDS_P2;PMS_P1;PMS_P2;Temp;Humidity;BMP_temperature;BMP_pressure;BME280_temperature;BME280_humidity;BME280_pressure;Samples;Min_cycle;Max_cycle;Signal;HPM_P1;HPM_P2
2021/03/06 00:00:15;;;;;;;4.23;2.80;;;0.10;99.90;;;;;;4955446;29;20459;-84
2021/03/06 00:02:41;;;;;;;5.47;2.83;;;0.10;99.90;;;;;;4954762;29;20947;-88
2021/03/06 00:05:09;;;;;;;3.30;2.80;;;0.10;99.90;;;;;;4955391;28;20448;-85
2021/03/06 00:07:35;;;;;;;2.90;2.43;;;0.00;99.90;;;;;;4954899;29;20421;-85
2021/03/06 00:10:02;;;;;;;4.10;2.37;;;0.00;99.90;;;;;;4954722;29;20417;-84
2021/03/06 00:12:29;;;;;;;5.20;3.20;;;0.00;99.90;;;;;;4955293;29;20776;-88
2021/03/06 00:14:56;;;;;;;5.70;3.10;;;-0.10;99.90;;;;;;4955780;28;20433;-88
2021/03/06 00:17:22;;;;;;;4.40;2.60;;;-0.10;99.90;;;;;;4954894;29;20453;-85
2021/03/06 00:19:48;;;;;;;4.10;3.10;;;-0.10;99.90;;;;;;4946235;29;20421;-85
2021/03/06 00:22:15;;;;;;;4.30;2.77;;;-0.20;99.90;;;;;;4955525;29;20477;-88
2021/03/06 00:24:41;;;;;;;3.20;2.50;;;-0.10;99.90;;;;;;4955509;29;20458;-85
2021/03/06 00:27:07;;;;;;;4.20;2.70;;;-0.10;99.90;;;;;;4955248;29;20424;-85
2021/03/06 00:29:34;;;;;;;3.97;2.77;;;-0.20;99.90;;;;;;4954419;29;20976;-88
2021/03/06 00:32:01;;;;;;;4.30;3.40;;;-0.20;99.90;;;;;;4955064;29;20413;-86
2021/03/06 00:34:27;;;;;;;4.27;2.60;;;-0.10;99.90;;;;;;4954980;29;20442;-86
2021/03/06 00:36:53;;;;;;;5.93;3.07;;;-0.10;99.90;;;;;;4955539;29;20474;-87
2021/03/06 00:39:19;;;;;;;3.63;3.00;;;-0.20;99.90;;;;;;4955088;28;20577;-88
2021/03/06 00:41:46;;;;;;;3.47;3.17;;;-0.40;99.90;;;;;;4957431;29;20451;-86
2021/03/06 00:44:12;;;;;;;4.87;2.93;;;-0.30;99.90;;;;;;4955308;29;20517;-86
2021/03/06 00:46:39;;;;;;;2.93;2.53;;;-0.30;99.90;;;;;;4954531;29;20474;-84
2021/03/06 00:49:05;;;;;;;4.10;2.63;;;-0.20;99.90;;;;;;4955063;29;20404;-85
2021/03/06 00:51:32;;;;;;;3.40;3.10;;;-0.30;99.90;;;;;;4955059;29;20422;-88
2021/03/06 00:53:58;;;;;;;3.10;2.40;;;-0.40;99.90;;;;;;4955177;29;20446;-88
2021/03/06 00:56:24;;;;;;;3.60;2.57;;;-0.40;99.90;;;;;;4954963;29;20486;-86
2021/03/06 00:58:51;;;;;;;3.77;2.80;;;-0.30;99.90;;;;;;4954312;29;20521;-84
2021/03/06 01:01:17;;;;;;;5.03;3.47;;;-0.40;99.90;;;;;;4954890;29;20461;-87
2021/03/06 01:03:44;;;;;;;6.17;3.50;;;-0.40;99.90;;;;;;4954874;29;20457;-86
2021/03/06 01:06:10;;;;;;;4.50;2.93;;;-0.40;99.90;;;;;;4957620;28;20444;-87
2021/03/06 01:08:37;;;;;;;4.93;3.33;;;-0.50;99.90;;;;;;4958491;29;20432;-86
2021/03/06 01:11:04;;;;;;;3.10;2.77;;;-0.40;99.90;;;;;;4958662;29;20932;-88
2021/03/06 01:13:31;;;;;;;5.27;3.13;;;-0.40;99.90;;;;;;4958177;29;20425;-85
2021/03/06 01:15:57;;;;;;;3.47;2.83;;;-0.40;99.90;;;;;;4957938;28;20493;-88
2021/03/06 01:18:23;;;;;;;5.53;3.27;;;-0.40;99.90;;;;;;4957771;29;21024;-84
2021/03/06 01:20:50;;;;;;;5.20;3.83;;;-0.40;99.90;;;;;;4958090;29;20457;-86
2021/03/06 01:23:17;;;;;;;4.40;3.57;;;-0.60;99.90;;;;;;4958549;29;20835;-85
2021/03/06 01:25:43;;;;;;;3.33;3.03;;;-0.60;99.90;;;;;;4957375;28;20478;-83
2021/03/06 01:28:09;;;;;;;5.07;3.60;;;-0.60;99.90;;;;;;4957761;29;20433;-84
2021/03/06 01:30:36;;;;;;;4.27;3.10;;;-0.70;99.90;;;;;;4957720;29;20446;-85
2021/03/06 01:33:04;;;;;;;4.43;3.33;;;-0.70;99.90;;;;;;4957732;29;20425;-86
2021/03/06 01:35:30;;;;;;;3.47;3.27;;;-0.70;99.90;;;;;;4957566;28;20456;-83
2021/03/06 01:37:57;;;;;;;3.70;3.40;;;-0.80;99.90;;;;;;4957463;29;20472;-84
2021/03/06 01:40:29;;;;;;;4.57;3.70;;;-0.90;99.90;;;;;;4957439;29;20421;-83
2021/03/06 01:42:56;;;;;;;3.73;3.33;;;-0.90;99.90;;;;;;4957428;29;20449;-85
2021/03/06 01:45:22;;;;;;;6.73;3.80;;;-1.00;99.90;;;;;;4957109;28;20474;-83
2021/03/06 01:47:49;;;;;;;5.70;4.20;;;-0.90;99.90;;;;;;4956721;29;20429;-83
2021/03/06 01:50:20;;;;;;;5.27;3.50;;;-1.00;99.90;;;;;;4957437;29;20450;-83
2021/03/06 01:52:47;;;;;;;4.80;3.77;;;-0.90;99.90;;;;;;4957232;29;20535;-82
2021/03/06 01:55:15;;;;;;;4.43;3.57;;;-0.90;99.90;;;;;;4957452;28;20470;-89
2021/03/06 01:57:41;;;;;;;8.80;2.90;;;-1.00;99.90;;;;;;4957400;29;20444;-82
2021/03/06 02:00:08;;;;;;;4.17;3.40;;;-1.00;99.90;;;;;;4956971;29;20425;-82
2021/03/06 02:02:35;;;;;;;3.90;3.20;;;-1.10;99.90;;;;;;4955344;29;20970;-82
2021/03/06 02:05:01;;;;;;;2.73;2.53;;;-1.00;99.90;;;;;;4957830;28;20469;-89
2021/03/06 02:07:28;;;;;;;5.50;3.27;;;-1.10;99.90;;;;;;4957532;29;20451;-88
2021/03/06 02:09:54;;;;;;;5.83;3.40;;;-1.10;99.90;;;;;;4957609;29;20497;-88
2021/03/06 02:12:27;;;;;;;4.90;3.43;;;-1.00;99.90;;;;;;4957726;29;20518;-82
2021/03/06 02:15:25;;;;;;;4.37;3.00;;;-1.10;99.90;;;;;;4956987;29;20473;-82
2021/03/06 02:17:56;;;;;;;3.70;2.67;;;-0.90;99.90;;;;;;4947596;28;20421;-83
2021/03/06 02:20:43;;;;;;;2.87;2.53;;;-0.80;99.90;;;;;;4958016;29;20561;-89
2021/03/06 02:23:42;;;;;;;3.47;3.00;;;-0.70;99.90;;;;;;4958721;29;20420;-87
2021/03/06 02:26:39;;;;;;;7.03;3.10;;;-0.80;99.90;;;;;;4957100;28;20822;-89
2021/03/06 02:29:39;;;;;;;3.60;3.30;;;-0.80;99.90;;;;;;4957021;29;20435;-83
2021/03/06 02:32:10;;;;;;;5.30;3.40;;;-0.80;99.90;;;;;;4956970;29;20421;-82
2021/03/06 02:34:39;;;;;;;5.00;3.67;;;-0.80;99.90;;;;;;4956539;29;20415;-83
2021/03/06 02:37:07;;;;;;;3.07;2.80;;;-0.70;99.90;;;;;;4956011;29;20497;-83
2021/03/06 02:39:35;;;;;;;3.60;3.10;;;-0.80;99.90;;;;;;4955984;29;21028;-84
2021/03/06 02:42:06;;;;;;;4.83;3.17;;;-0.80;99.90;;;;;;4956466;29;20433;-84
2021/03/06 02:44:35;;;;;;;6.30;3.57;;;-0.80;99.90;;;;;;4955902;29;20447;-82
2021/03/06 02:47:03;;;;;;;3.10;2.80;;;-0.80;99.90;;;;;;4956102;29;20428;-82
2021/03/06 02:49:29;;;;;;;4.20;3.60;;;-0.80;99.90;;;;;;4955807;29;20429;-87
2021/03/06 02:51:56;;;;;;;4.03;3.50;;;-0.90;99.90;;;;;;4957107;29;20973;-87
2021/03/06 02:54:22;;;;;;;4.47;3.00;;;-0.90;99.90;;;;;;4955868;29;20818;-83
2021/03/06 02:56:49;;;;;;;3.40;3.10;;;-0.90;99.90;;;;;;4955237;29;21024;-83
2021/03/06 02:59:29;;;;;;;3.40;3.10;;;-0.90;99.90;;;;;;4955703;29;20541;-83
2021/03/06 03:02:07;;;;;;;2.70;2.37;;;-0.90;99.90;;;;;;4955576;29;20449;-83
2021/03/06 03:04:46;;;;;;;5.07;3.63;;;-1.00;99.90;;;;;;4955663;29;20502;-83
2021/03/06 03:07:28;;;;;;;5.90;4.30;;;-1.00;99.90;;;;;;4956154;29;20515;-86
2021/03/06 03:09:59;;;;;;;5.47;3.10;;;-0.90;99.90;;;;;;4955551;29;20450;-84
2021/03/06 03:12:32;;;;;;;5.90;3.73;;;-1.00;99.90;;;;;;4955871;29;20439;-83
2021/03/06 03:15:05;;;;;;;3.83;2.87;;;-1.00;99.90;;;;;;4955632;28;20482;-84
2021/03/06 03:17:38;;;;;;;4.30;3.70;;;-1.10;99.90;;;;;;4955136;29;20477;-82
2021/03/06 03:20:11;;;;;;;3.67;3.13;;;-1.00;99.90;;;;;;4955521;29;20417;-84
2021/03/06 03:22:42;;;;;;;4.53;3.87;;;-1.10;99.90;;;;;;4955290;29;21010;-84
2021/03/06 03:25:11;;;;;;;5.50;3.50;;;-1.10;99.90;;;;;;4955355;29;20482;-87
2021/03/06 03:27:39;;;;;;;3.67;3.37;;;-1.10;99.90;;;;;;4955547;28;20481;-82
2021/03/06 03:30:08;;;;;;;3.40;3.20;;;-1.00;99.90;;;;;;4955454;29;20429;-86
2021/03/06 03:32:35;;;;;;;4.40;4.00;;;-1.10;99.90;;;;;;4955021;29;20450;-82
2021/03/06 03:35:03;;;;;;;4.90;4.40;;;-1.10;99.90;;;;;;4946388;29;20486;-88
2021/03/06 03:37:31;;;;;;;5.00;3.50;;;-1.10;99.90;;;;;;4955340;29;21013;-87
2021/03/06 03:39:58;;;;;;;3.87;3.50;;;-1.10;99.90;;;;;;4936735;29;20431;-87
2021/03/06 03:42:25;;;;;;;4.23;3.10;;;-1.10;99.90;;;;;;4948865;29;20458;-87
2021/03/06 03:44:52;;;;;;;5.57;3.90;;;-1.10;99.90;;;;;;4955020;28;20470;-82
2021/03/06 03:47:19;;;;;;;4.97;3.70;;;-1.20;99.90;;;;;;4955554;29;20450;-82
2021/03/06 03:49:46;;;;;;;4.70;3.60;;;-1.30;99.90;;;;;;4955231;29;20428;-82
2021/03/06 03:52:12;;;;;;;5.70;4.27;;;-1.20;99.90;;;;;;4955059;29;20454;-83
2021/03/06 03:54:40;;;;;;;4.83;3.70;;;-1.20;99.90;;;;;;4955278;29;20454;-82
2021/03/06 03:57:08;;;;;;;4.40;3.03;;;-1.30;99.90;;;;;;4954959;29;20490;-82
2021/03/06 03:59:34;;;;;;;4.73;3.30;;;-1.30;99.90;;;;;;4955034;29;20454;-83
2021/03/06 04:02:01;;;;;;;5.13;4.10;;;-1.20;99.90;;;;;;4955217;29;20450;-84
2021/03/06 04:04:32;;;;;;;4.20;3.73;;;-1.30;99.90;;;;;;4955195;29;20516;-88
2021/03/06 04:07:00;;;;;;;5.83;3.77;;;-1.30;99.90;;;;;;4955405;29;20422;-84
2021/03/06 04:09:27;;;;;;;3.73;3.33;;;-1.20;99.90;;;;;;4954869;29;20518;-82
2021/03/06 04:11:55;;;;;;;3.50;3.30;;;-1.30;99.90;;;;;;4955232;29;20436;-86
2021/03/06 04:14:21;;;;;;;4.10;3.33;;;-1.40;99.90;;;;;;4955458;29;20413;-87
2021/03/06 04:16:47;;;;;;;3.97;3.57;;;-1.30;99.90;;;;;;4955205;29;20494;-86
2021/03/06 04:19:14;;;;;;;4.60;3.60;;;-1.40;99.90;;;;;;4955404;29;20454;-87
2021/03/06 04:21:40;;;;;;;6.40;3.93;;;-1.40;99.90;;;;;;4954981;29;20949;-86
2021/03/06 04:24:08;;;;;;;4.07;3.47;;;-1.40;99.90;;;;;;4955475;29;20513;-86
2021/03/06 04:26:34;;;;;;;4.20;3.80;;;-1.40;99.90;;;;;;4955113;28;20956;-84
2021/03/06 04:29:00;;;;;;;3.63;3.27;;;-1.40;99.90;;;;;;4954553;29;20458;-84
2021/03/06 04:31:34;;;;;;;5.20;3.47;;;-1.40;99.90;;;;;;4955396;29;20466;-88
2021/03/06 04:34:00;;;;;;;5.20;4.00;;;-1.30;99.90;;;;;;4954526;29;20450;-84
2021/03/06 04:36:27;;;;;;;4.03;3.53;;;-1.30;99.90;;;;;;4954310;28;20489;-83
2021/03/06 04:38:53;;;;;;;3.60;3.30;;;-1.40;99.90;;;;;;4954616;28;20486;-84
2021/03/06 04:41:20;;;;;;;4.93;4.00;;;-1.40;99.90;;;;;;4957748;28;20453;-84
2021/03/06 04:43:46;;;;;;;5.90;3.80;;;-1.40;99.90;;;;;;4953316;29;20457;-88
2021/03/06 04:46:13;;;;;;;4.30;3.53;;;-1.40;99.90;;;;;;4958517;28;20481;-84
2021/03/06 04:48:39;;;;;;;3.70;3.20;;;-1.50;99.90;;;;;;4958307;29;20429;-86
2021/03/06 04:51:05;;;;;;;3.23;2.93;;;-1.50;99.90;;;;;;4958392;29;20455;-86
2021/03/06 04:53:31;;;;;;;4.13;3.47;;;-1.50;99.90;;;;;;4958534;29;20909;-82
2021/03/06 04:55:58;;;;;;;5.67;3.90;;;-1.50;99.90;;;;;;4958159;28;20496;-84
2021/03/06 04:58:25;;;;;;;3.00;2.73;;;-1.60;99.90;;;;;;4958344;29;20446;-82
2021/03/06 05:00:51;;;;;;;4.33;3.60;;;-1.50;99.90;;;;;;4957968;29;20458;-85
2021/03/06 05:03:17;;;;;;;6.80;3.80;;;-1.50;99.90;;;;;;4957933;29;20447;-87
2021/03/06 05:05:43;;;;;;;5.03;3.67;;;-1.60;99.90;;;;;;4958264;29;20478;-82
2021/03/06 05:08:09;;;;;;;4.87;3.90;;;-1.60;99.90;;;;;;4957801;29;20477;-82
2021/03/06 05:10:36;;;;;;;5.40;4.23;;;-1.70;99.90;;;;;;4957740;29;20454;-81
2021/03/06 05:13:02;;;;;;;5.63;4.30;;;-1.70;99.90;;;;;;4957799;29;20450;-82
2021/03/06 05:15:29;;;;;;;5.63;3.90;;;-1.70;99.90;;;;;;4958475;29;20456;-87
2021/03/06 05:17:55;;;;;;;4.00;3.60;;;-1.70;99.90;;;;;;4957439;29;20501;-83
2021/03/06 05:20:22;;;;;;;5.40;4.03;;;-1.80;99.90;;;;;;4957271;29;20896;-83
2021/03/06 05:22:48;;;;;;;4.83;3.67;;;-1.70;99.90;;;;;;4957626;29;20954;-83
2021/03/06 05:25:14;;;;;;;5.70;3.80;;;-1.70;99.90;;;;;;4957409;29;20469;-85
2021/03/06 05:27:41;;;;;;;4.97;3.27;;;-1.70;99.90;;;;;;4958685;29;20866;-85
2021/03/06 05:30:08;;;;;;;4.20;3.50;;;-1.70;99.90;;;;;;4957410;29;20446;-83
2021/03/06 05:32:36;;;;;;;12.03;3.83;;;-1.80;99.90;;;;;;4956867;29;20517;-85
2021/03/06 05:35:02;;;;;;;4.63;3.47;;;-1.80;99.90;;;;;;4957089;29;20470;-85
2021/03/06 05:37:28;;;;;;;6.20;3.37;;;-1.90;99.90;;;;;;4956398;29;20964;-82
2021/03/06 05:39:54;;;;;;;4.17;3.33;;;-1.90;99.90;;;;;;4957460;29;20447;-85
2021/03/06 05:42:22;;;;;;;4.20;3.20;;;-1.90;99.90;;;;;;4957132;29;20488;-85
2021/03/06 05:44:49;;;;;;;3.43;3.00;;;-1.90;99.90;;;;;;4957070;28;20451;-82
2021/03/06 05:47:16;;;;;;;4.30;3.60;;;-1.80;99.90;;;;;;4956881;29;20966;-87
2021/03/06 05:49:43;;;;;;;5.87;3.63;;;-1.80;99.90;;;;;;4957645;29;20459;-83
2021/03/06 05:52:10;;;;;;;4.83;3.60;;;-1.80;99.90;;;;;;4956343;28;20459;-83
2021/03/06 05:54:37;;;;;;;5.47;3.17;;;-1.80;99.90;;;;;;4957106;29;20454;-87
2021/03/06 05:57:05;;;;;;;4.77;3.80;;;-1.80;99.90;;;;;;4957287;29;20490;-82
2021/03/06 05:59:31;;;;;;;6.50;3.67;;;-1.80;99.90;;;;;;4956740;29;20847;-82
2021/03/06 06:01:59;;;;;;;3.90;3.50;;;-1.90;99.90;;;;;;4956547;29;21033;-87
2021/03/06 06:04:28;;;;;;;3.80;3.17;;;-1.90;99.90;;;;;;4956814;29;20832;-85
2021/03/06 06:06:57;;;;;;;3.83;3.50;;;-1.90;99.90;;;;;;4956375;29;20533;-82
2021/03/06 06:09:23;;;;;;;4.63;3.27;;;-1.90;99.90;;;;;;4956438;29;20462;-82
2021/03/06 06:11:50;;;;;;;4.13;3.67;;;-1.90;99.90;;;;;;4956733;29;20458;-83
2021/03/06 06:14:16;;;;;;;4.33;3.70;;;-1.90;99.90;;;;;;4956668;29;20481;-82
2021/03/06 06:16:42;;;;;;;5.03;3.30;;;-1.80;99.90;;;;;;4956813;28;20453;-86
2021/03/06 06:19:09;;;;;;;4.70;3.30;;;-1.80;99.90;;;;;;4956735;29;20450;-87
2021/03/06 06:21:43;;;;;;;4.60;4.00;;;-1.70;99.90;;;;;;4956224;29;20461;-82
2021/03/06 06:24:12;;;;;;;3.80;3.37;;;-1.40;99.90;;;;;;4955910;29;20425;-83
2021/03/06 06:26:39;;;;;;;5.00;3.40;;;-0.70;99.90;;;;;;4956214;29;21001;-83
2021/03/06 06:29:07;;;;;;;6.93;3.47;;;-0.30;99.10;;;;;;4956294;29;20522;-82
2021/03/06 06:31:33;;;;;;;3.90;3.60;;;-0.20;98.60;;;;;;4956120;29;20463;-82
2021/03/06 06:34:00;;;;;;;5.67;3.00;;;-0.50;98.90;;;;;;4955961;29;20974;-86
2021/03/06 06:36:34;;;;;;;3.80;3.07;;;-0.70;99.20;;;;;;4956263;29;20509;-82
2021/03/06 06:39:01;;;;;;;6.30;3.87;;;-0.80;99.40;;;;;;4955630;29;20484;-82
2021/03/06 06:41:50;;;;;;;5.17;3.37;;;-0.80;99.20;;;;;;4956301;29;20450;-81
2021/03/06 06:44:16;;;;;;;4.93;3.47;;;-0.90;99.40;;;;;;4955607;29;20572;-81
2021/03/06 06:46:43;;;;;;;7.80;4.03;;;-1.00;99.80;;;;;;4956587;29;20525;-81
2021/03/06 06:49:09;;;;;;;5.73;3.90;;;-1.00;99.90;;;;;;4956043;29;20440;-83
2021/03/06 06:51:35;;;;;;;3.60;3.17;;;-1.00;99.90;;;;;;4956314;29;20454;-82
2021/03/06 06:54:09;;;;;;;4.23;3.80;;;-1.00;99.90;;;;;;4955867;29;20458;-81
2021/03/06 06:56:35;;;;;;;4.00;3.63;;;-1.00;99.60;;;;;;4955268;28;20832;-86
2021/03/06 06:59:05;;;;;;;5.17;3.80;;;-1.10;99.60;;;;;;4955336;29;20437;-85
2021/03/06 07:01:35;;;;;;;7.37;3.40;;;-1.10;99.90;;;;;;4956341;29;20458;-84
2021/03/06 07:04:05;;;;;;;4.40;3.77;;;-1.10;99.90;;;;;;4954984;28;20486;-82
2021/03/06 07:06:31;;;;;;;3.93;3.53;;;-1.10;99.90;;;;;;4955401;29;20469;-81
2021/03/06 07:09:09;;;;;;;4.47;3.30;;;-1.00;99.80;;;;;;4955848;29;20458;-82
2021/03/06 07:11:36;;;;;;;4.60;3.60;;;-0.90;99.80;;;;;;4955299;29;20945;-82
2021/03/06 07:14:04;;;;;;;3.67;3.30;;;-0.90;99.90;;;;;;4955702;29;20450;-83
2021/03/06 07:16:59;;;;;;;4.13;3.20;;;-0.90;99.90;;;;;;4955115;28;20537;-81
2021/03/06 07:19:27;;;;;;;5.47;3.70;;;-0.80;99.90;;;;;;4955718;29;20421;-83
2021/03/06 07:21:53;;;;;;;5.03;3.53;;;-0.70;99.70;;;;;;4955394;29;21004;-86
2021/03/06 07:24:20;;;;;;;4.53;3.40;;;-0.60;99.70;;;;;;4955476;29;20420;-82
2021/03/06 07:26:51;;;;;;;6.87;3.43;;;-0.60;99.90;;;;;;4955292;28;20485;-87
2021/03/06 07:29:18;;;;;;;5.77;4.30;;;-0.60;99.90;;;;;;4955719;29;20447;-84
2021/03/06 07:31:49;;;;;;;3.70;3.40;;;-0.60;99.90;;;;;;4955417;29;20514;-81
2021/03/06 07:34:16;;;;;;;5.10;4.20;;;-0.60;99.90;;;;;;4955315;29;20882;-83
2021/03/06 07:36:43;;;;;;;8.30;3.77;;;-0.50;99.90;;;;;;4955665;28;20461;-81
2021/03/06 07:39:13;;;;;;;3.80;3.37;;;-0.40;99.90;;;;;;4955168;28;20489;-83
2021/03/06 07:41:42;;;;;;;4.60;3.33;;;-0.50;99.90;;;;;;4955488;29;21048;-88
2021/03/06 07:44:14;;;;;;;7.50;5.20;;;-0.40;99.90;;;;;;4956141;29;20453;-88
2021/03/06 07:46:41;;;;;;;8.10;4.03;;;-0.30;99.90;;;;;;4955298;28;21004;-88
2021/03/06 07:49:12;;;;;;;8.80;4.90;;;-0.20;99.90;;;;;;4956437;29;20772;-88
2021/03/06 07:51:43;;;;;;;7.83;4.60;;;-0.20;99.90;;;;;;4956081;29;20429;-88
2021/03/06 07:54:12;;;;;;;8.27;4.87;;;-0.20;99.90;;;;;;4955921;29;20438;-88
2021/03/06 07:56:38;;;;;;;5.60;4.70;;;-0.10;99.90;;;;;;4955594;28;20610;-88
2021/03/06 07:59:05;;;;;;;7.43;5.27;;;0.00;99.90;;;;;;4955831;29;20434;-88
2021/03/06 08:01:32;;;;;;;7.50;5.07;;;0.10;99.90;;;;;;4955790;29;20489;-88
2021/03/06 08:04:00;;;;;;;6.07;4.80;;;0.10;99.90;;;;;;4955206;29;20417;-88
2021/03/06 08:06:28;;;;;;;7.77;5.40;;;0.20;99.90;;;;;;4955457;29;20462;-87
2021/03/06 08:08:56;;;;;;;9.67;4.63;;;0.30;99.90;;;;;;4955764;29;20422;-89
2021/03/06 08:11:25;;;;;;;8.50;5.43;;;0.50;99.90;;;;;;4956626;29;20490;-88
2021/03/06 08:13:54;;;;;;;8.50;5.47;;;0.50;99.90;;;;;;4955421;28;20517;-86
2021/03/06 08:16:40;;;;;;;5.30;4.30;;;0.60;99.90;;;;;;4958355;29;20468;-86
2021/03/06 08:19:30;;;;;;;10.00;5.23;;;0.70;99.90;;;;;;4959280;29;20449;-86
2021/03/06 08:22:14;;;;;;;7.03;4.87;;;0.90;99.90;;;;;;4959413;29;20401;-84
2021/03/06 08:24:41;;;;;;;6.10;4.63;;;1.00;99.90;;;;;;4958975;29;20420;-86
2021/03/06 08:27:22;;;;;;;8.57;5.73;;;1.00;99.90;;;;;;4959158;29;20420;-86
2021/03/06 08:29:54;;;;;;;7.87;5.20;;;1.10;99.90;;;;;;4958794;29;20566;-83
2021/03/06 08:32:32;;;;;;;8.00;5.60;;;1.20;99.90;;;;;;4958520;29;20421;-83
2021/03/06 08:35:16;;;;;;;6.53;4.83;;;1.40;99.90;;;;;;4958441;29;20445;-83
2021/03/06 08:37:42;;;;;;;9.63;6.07;;;1.50;99.90;;;;;;4958637;28;20568;-84
2021/03/06 08:40:15;;;;;;;6.20;4.63;;;1.60;99.90;;;;;;4958352;29;20439;-83
2021/03/06 08:42:43;;;;;;;10.60;6.23;;;1.70;99.90;;;;;;4958634;29;20500;-83
2021/03/06 08:45:12;;;;;;;9.37;5.10;;;2.00;99.90;;;;;;4959220;29;20481;-83
2021/03/06 08:47:40;;;;;;;8.13;5.70;;;2.30;99.90;;;;;;4958221;29;20943;-83
2021/03/06 08:50:10;;;;;;;9.60;5.33;;;2.40;99.60;;;;;;4958288;29;20461;-86
2021/03/06 08:52:39;;;;;;;10.10;5.37;;;2.60;99.20;;;;;;4958717;29;20541;-86
2021/03/06 08:55:07;;;;;;;8.03;6.37;;;2.70;98.60;;;;;;4958846;28;20444;-87
2021/03/06 08:57:35;;;;;;;10.97;5.83;;;2.70;98.60;;;;;;4959261;29;21038;-87
2021/03/06 09:00:06;;;;;;;7.77;5.10;;;3.00;98.30;;;;;;4959292;29;20761;-86
2021/03/06 09:02:34;;;;;;;9.90;5.70;;;3.10;97.50;;;;;;4958453;29;20436;-86
2021/03/06 09:05:06;;;;;;;7.40;5.47;;;3.40;96.40;;;;;;4958364;29;20464;-86
2021/03/06 09:07:35;;;;;;;6.77;4.03;;;4.00;96.20;;;;;;4957657;29;20429;-86
2021/03/06 09:10:32;;;;;;;8.90;5.37;;;5.30;93.30;;;;;;4957963;29;20446;-85
2021/03/06 09:13:01;;;;;;;11.03;4.10;;;6.40;90.00;;;;;;4957946;29;20938;-86
2021/03/06 09:15:46;;;;;;;6.80;5.57;;;7.50;80.00;;;;;;4958125;29;20466;-87
2021/03/06 09:18:14;;;;;;;7.30;5.13;;;8.60;75.10;;;;;;4958048;29;20477;-85
2021/03/06 09:20:49;;;;;;;7.80;5.00;;;9.30;65.80;;;;;;4957666;29;20442;-84
2021/03/06 09:23:30;;;;;;;5.20;4.50;;;9.90;59.90;;;;;;4958000;29;20443;-85
2021/03/06 09:25:58;;;;;;;5.60;5.10;;;10.30;56.40;;;;;;4938198;29;20990;-84
2021/03/06 09:28:27;;;;;;;5.73;5.00;;;10.30;56.00;;;;;;4938609;29;20443;-84
2021/03/06 09:30:54;;;;;;;9.00;4.80;;;11.20;54.20;;;;;;4938674;29;20480;-84
2021/03/06 09:33:29;;;;;;;6.60;4.97;;;11.20;51.40;;;;;;4938470;29;20942;-84
2021/03/06 09:36:04;;;;;;;7.27;5.23;;;11.60;51.00;;;;;;4938293;29;20459;-84
2021/03/06 09:38:32;;;;;;;6.60;5.37;;;11.60;49.70;;;;;;4938487;29;20482;-84
2021/03/06 09:40:59;;;;;;;6.23;4.50;;;12.30;49.00;;;;;;4938475;29;20463;-83
2021/03/06 09:43:29;;;;;;;5.13;4.60;;;13.20;45.90;;;;;;4938194;29;20439;-84
2021/03/06 09:45:56;;;;;;;5.20;4.70;;;12.90;45.20;;;;;;4938460;29;20459;-83
2021/03/06 09:48:24;;;;;;;5.53;4.93;;;13.00;43.40;;;;;;4938322;29;20512;-83
2021/03/06 09:50:53;;;;;;;6.20;5.20;;;12.80;43.70;;;;;;4938066;29;20951;-84
2021/03/06 09:53:21;;;;;;;5.47;4.77;;;12.90;43.10;;;;;;4938080;29;20522;-83
2021/03/06 09:56:03;;;;;;;5.00;4.60;;;12.70;44.20;;;;;;4938132;29;20563;-84
2021/03/06 09:58:29;;;;;;;4.60;4.20;;;12.30;46.20;;;;;;4946579;29;20463;-82
2021/03/06 10:01:15;;;;;;;5.33;4.83;;;12.60;44.30;;;;;;4956933;29;20450;-83
2021/03/06 10:03:42;;;;;;;5.60;4.63;;;12.70;44.60;;;;;;4957112;29;20461;-83
2021/03/06 10:06:10;;;;;;;6.27;5.03;;;13.30;44.00;;;;;;4955563;29;20481;-82
2021/03/06 10:08:43;;;;;;;5.10;4.60;;;13.40;41.80;;;;;;4957070;29;20459;-83
2021/03/06 10:11:10;;;;;;;6.57;4.67;;;13.10;41.80;;;;;;4956484;29;20454;-83
2021/03/06 10:13:36;;;;;;;5.00;4.50;;;12.70;41.70;;;;;;4956723;29;21016;-83
2021/03/06 10:16:03;;;;;;;6.93;4.60;;;12.50;42.20;;;;;;4956556;28;20470;-83
2021/03/06 10:18:37;;;;;;;4.27;3.87;;;11.80;41.30;;;;;;4956414;28;20482;-83
2021/03/06 10:21:12;;;;;;;3.97;3.67;;;11.90;41.80;;;;;;4956738;29;20502;-83
2021/03/06 10:23:39;;;;;;;4.50;4.10;;;11.50;41.80;;;;;;4956860;29;20446;-83
2021/03/06 10:26:28;;;;;;;4.17;3.77;;;11.50;43.00;;;;;;4956090;28;20463;-87
2021/03/06 10:28:56;;;;;;;5.10;4.63;;;12.10;44.10;;;;;;4955103;29;20528;-84
2021/03/06 10:31:40;;;;;;;5.00;4.33;;;12.60;41.10;;;;;;4956128;29;20453;-82
2021/03/06 10:34:18;;;;;;;4.57;4.17;;;13.70;40.40;;;;;;4956533;29;20501;-85
2021/03/06 10:36:45;;;;;;;3.63;3.33;;;14.80;37.40;;;;;;4956425;29;20501;-85
2021/03/06 10:39:16;;;;;;;4.97;3.80;;;15.30;37.20;;;;;;4955897;28;20497;-87
2021/03/06 10:41:43;;;;;;;3.83;3.50;;;16.00;37.00;;;;;;4956891;29;20438;-84
2021/03/06 10:44:10;;;;;;;3.70;3.40;;;16.70;34.70;;;;;;4956456;29;20509;-84
2021/03/06 10:46:36;;;;;;;3.80;3.50;;;16.60;33.40;;;;;;4955963;29;20981;-84
2021/03/06 10:49:04;;;;;;;5.40;4.30;;;16.70;32.80;;;;;;4956335;29;20454;-87
2021/03/06 10:51:44;;;;;;;3.70;3.40;;;16.30;32.60;;;;;;4956127;29;20529;-87
2021/03/06 10:54:12;;;;;;;3.47;3.17;;;15.90;32.60;;;;;;4956777;29;20948;-87
2021/03/06 10:56:39;;;;;;;4.53;4.10;;;15.90;33.10;;;;;;4956093;29;20496;-85
2021/03/06 10:59:07;;;;;;;3.70;3.40;;;15.90;33.90;;;;;;4956503;29;20461;-86
2021/03/06 11:01:45;;;;;;;4.10;3.80;;;16.40;33.50;;;;;;4958468;28;20958;-85
2021/03/06 11:04:24;;;;;;;3.80;3.30;;;16.50;31.00;;;;;;4956419;29;20418;-88
2021/03/06 11:06:55;;;;;;;3.87;3.57;;;15.60;31.60;;;;;;4956160;29;20525;-85
2021/03/06 11:09:25;;;;;;;3.97;3.57;;;15.00;32.50;;;;;;4956705;29;20529;-85
2021/03/06 11:11:52;;;;;;;4.70;3.80;;;14.50;33.60;;;;;;4956603;29;20462;-85
2021/03/06 11:14:27;;;;;;;3.90;3.50;;;13.20;34.90;;;;;;4956637;29;20451;-88
2021/03/06 11:16:54;;;;;;;4.20;3.80;;;12.00;36.50;;;;;;4956956;29;20496;-85
2021/03/06 11:19:21;;;;;;;4.73;4.30;;;10.90;38.20;;;;;;4956456;29;20457;-88
2021/03/06 11:21:47;;;;;;;4.80;4.30;;;10.10;39.80;;;;;;4955920;29;20945;-85
2021/03/06 11:24:13;;;;;;;4.07;3.77;;;9.30;42.20;;;;;;4956152;29;20438;-87
2021/03/06 11:26:40;;;;;;;4.50;3.90;;;8.70;43.40;;;;;;4955704;29;20474;-82
2021/03/06 11:29:06;;;;;;;4.63;3.60;;;8.30;45.10;;;;;;4956154;29;20454;-85
2021/03/06 11:31:33;;;;;;;4.57;4.17;;;8.10;45.80;;;;;;4955809;29;20467;-85
2021/03/06 11:34:00;;;;;;;4.37;3.53;;;7.80;44.40;;;;;;4955340;29;20462;-92
2021/03/06 11:36:26;;;;;;;6.27;4.20;;;7.70;43.40;;;;;;4955497;28;20850;-92
2021/03/06 11:38:52;;;;;;;3.70;3.30;;;7.30;44.60;;;;;;4956310;28;20537;-92
2021/03/06 11:41:19;;;;;;;4.30;3.87;;;7.30;44.50;;;;;;4956390;29;20434;-92
2021/03/06 11:43:45;;;;;;;3.37;3.07;;;7.30;43.40;;;;;;4956311;29;20445;-92
2021/03/06 11:46:11;;;;;;;3.20;2.80;;;7.20;43.40;;;;;;4955758;29;20481;-84
2021/03/06 11:48:39;;;;;;;4.80;3.30;;;6.90;43.30;;;;;;4955884;29;20934;-89
2021/03/06 11:51:05;;;;;;;3.37;3.07;;;7.00;43.70;;;;;;4954763;29;20486;-92
2021/03/06 11:53:31;;;;;;;3.43;2.63;;;6.80;43.80;;;;;;4956355;29;20853;-87
2021/03/06 11:55:58;;;;;;;5.63;3.27;;;6.90;43.40;;;;;;4956120;28;20466;-84
2021/03/06 11:58:24;;;;;;;2.90;2.60;;;6.80;43.50;;;;;;4956748;29;20490;-90
2021/03/06 12:00:50;;;;;;;3.97;2.50;;;6.90;42.70;;;;;;4956069;29;20458;-92
2021/03/06 12:03:17;;;;;;;4.93;3.23;;;6.80;42.80;;;;;;4955183;29;20454;-85
2021/03/06 12:05:44;;;;;;;5.07;2.27;;;6.50;42.80;;;;;;4955414;28;20478;-85
2021/03/06 12:08:10;;;;;;;3.13;2.37;;;6.30;41.50;;;;;;4956221;29;20470;-86
2021/03/06 12:10:36;;;;;;;2.77;2.57;;;6.20;41.30;;;;;;4955470;29;20446;-90
2021/03/06 12:13:03;;;;;;;2.13;2.03;;;6.30;41.80;;;;;;4956665;29;20462;-89
2021/03/06 12:15:29;;;;;;;3.40;2.70;;;6.40;41.90;;;;;;4955447;29;20466;-90
2021/03/06 12:17:56;;;;;;;2.83;2.47;;;6.40;42.00;;;;;;4955653;29;20478;-91
2021/03/06 12:20:23;;;;;;;3.30;3.00;;;6.40;42.30;;;;;;4955636;29;20484;-89
2021/03/06 12:22:50;;;;;;;3.00;2.70;;;6.40;42.80;;;;;;4955291;29;20458;-85
2021/03/06 12:25:16;;;;;;;2.23;1.97;;;6.40;42.50;;;;;;4954774;28;20466;-90
2021/03/06 12:27:44;;;;;;;4.63;2.10;;;6.30;41.70;;;;;;4954390;29;20723;-83
2021/03/06 12:30:12;;;;;;;2.80;2.57;;;6.30;41.50;;;;;;4954777;29;20439;-85
2021/03/06 12:32:40;;;;;;;2.60;2.40;;;6.20;39.60;;;;;;4954434;29;20462;-83
2021/03/06 12:35:08;;;;;;;4.33;2.87;;;6.20;40.60;;;;;;4956208;28;20968;-91
2021/03/06 12:37:35;;;;;;;2.93;2.70;;;6.10;41.20;;;;;;4955517;28;20467;-91
2021/03/06 12:59:58;;;;;;;1.70;1.30;;;5.80;35.30;;;;;;4954342;29;20413;-87
2021/03/06 13:02:25;;;;;;;1.50;1.40;;;5.70;35.40;;;;;;4958051;28;20430;-89
2021/03/06 13:04:51;;;;;;;1.50;1.40;;;5.70;35.00;;;;;;4957740;29;22239;-83
2021/03/06 13:07:17;;;;;;;1.80;1.70;;;5.70;31.90;;;;;;4959181;29;20458;-92
2021/03/06 13:09:43;;;;;;;1.20;1.10;;;5.60;33.20;;;;;;4959012;29;20458;-92
2021/03/06 13:12:10;;;;;;;1.37;1.27;;;5.60;33.50;;;;;;4958104;29;20458;-89
2021/03/06 13:14:36;;;;;;;1.40;1.30;;;5.50;33.80;;;;;;4956754;28;20457;-91
2021/03/06 13:17:03;;;;;;;2.10;1.47;;;5.50;35.10;;;;;;4958407;29;20482;-92
2021/03/06 13:19:30;;;;;;;1.30;1.20;;;5.60;35.50;;;;;;4958237;29;20828;-84